createdAt,value
2024-03-07T00:00:37.321Z,40.30
2024-03-07T00:03:06.409Z,45.03
2024-03-07T00:05:34.706Z,36.47
2024-03-07T00:08:05.030Z,40.07
2024-03-07T00:10:33.475Z,40.83
2024-03-07T00:13:01.758Z,39.30
2024-03-07T00:15:31.336Z,44.20
2024-03-07T00:17:59.949Z,39.33
2024-03-07T00:20:28.365Z,33.17
2024-03-07T00:22:56.963Z,39.20
2024-03-07T00:25:27.288Z,37.93
2024-03-07T00:27:58.266Z,33.73
2024-03-07T00:30:26.561Z,38.93
2024-03-07T00:32:55.822Z,41.03
2024-03-07T00:35:24.689Z,36.53
2024-03-07T00:37:53.005Z,38.23
2024-03-07T00:40:21.669Z,40.80
2024-03-07T00:42:52.000Z,38.07
2024-03-07T00:45:20.196Z,38.10
2024-03-07T00:47:49.708Z,38.30
2024-03-07T00:50:18.440Z,39.87
2024-03-07T00:52:47.218Z,38.90
2024-03-07T00:55:16.196Z,39.83
2024-03-07T00:57:44.452Z,40.67
2024-03-07T01:00:16.086Z,39.73
2024-03-07T01:02:45.700Z,38.87
2024-03-07T01:05:15.424Z,40.00
2024-03-07T01:07:44.553Z,37.63
2024-03-07T01:10:13.090Z,41.37
2024-03-07T01:12:41.543Z,40.97
2024-03-07T01:15:13.056Z,37.93
2024-03-07T01:17:42.993Z,37.57
2024-03-07T01:20:12.836Z,39.07
2024-03-07T01:22:41.542Z,38.10
2024-03-07T01:25:10.248Z,38.07
2024-03-07T01:27:38.886Z,39.17
2024-03-07T01:30:09.262Z,37.27
2024-03-07T01:32:38.083Z,38.87
2024-03-07T01:35:09.813Z,36.63
2024-03-07T01:37:38.379Z,40.87
2024-03-07T01:40:08.169Z,37.27
2024-03-07T01:42:36.751Z,32.53
2024-03-07T01:45:06.300Z,33.60
2024-03-07T01:47:35.018Z,35.97
2024-03-07T01:50:03.625Z,34.37
2024-03-07T01:52:33.784Z,37.73
2024-03-07T01:55:04.270Z,32.67
2024-03-07T01:57:32.877Z,38.00
2024-03-07T02:00:05.069Z,35.50
2024-03-07T02:02:36.099Z,33.90
2024-03-07T02:05:04.811Z,34.13
2024-03-07T02:07:34.737Z,34.80
2024-03-07T02:10:05.061Z,34.03
2024-03-07T02:12:34.020Z,34.47
2024-03-07T02:15:02.379Z,35.07
2024-03-07T02:17:31.384Z,33.70
2024-03-07T02:20:00.133Z,34.00
2024-03-07T02:22:29.971Z,35.57
2024-03-07T02:24:58.339Z,33.03
2024-03-07T02:27:26.726Z,36.83
2024-03-07T02:29:55.036Z,33.77
2024-03-07T02:32:24.391Z,32.87
2024-03-07T02:34:52.873Z,38.00
2024-03-07T02:37:21.169Z,35.33
2024-03-07T02:39:51.167Z,35.67
2024-03-07T02:42:19.645Z,33.83
2024-03-07T02:44:48.195Z,35.80
2024-03-07T02:47:16.855Z,32.53
2024-03-07T02:49:45.279Z,34.30
2024-03-07T02:52:13.818Z,30.20
2024-03-07T02:54:42.183Z,33.53
2024-03-07T02:57:12.859Z,31.87
2024-03-07T02:59:41.672Z,32.10
2024-03-07T03:02:10.477Z,30.73
2024-03-07T03:04:39.497Z,29.37
2024-03-07T03:07:14.641Z,30.93
2024-03-07T03:09:44.701Z,30.90
2024-03-07T03:12:14.611Z,30.53
2024-03-07T03:14:43.358Z,35.23
2024-03-07T03:17:12.587Z,33.17
2024-03-07T03:19:41.072Z,32.37
2024-03-07T03:22:10.150Z,30.57
2024-03-07T03:24:38.404Z,37.10
2024-03-07T03:27:12.954Z,32.60
2024-03-07T03:29:41.910Z,33.80
2024-03-07T03:32:10.723Z,29.53
2024-03-07T03:34:39.075Z,36.57
2024-03-07T03:37:07.616Z,29.27
2024-03-07T03:39:36.318Z,30.80
2024-03-07T03:42:04.752Z,28.93
2024-03-07T03:44:35.368Z,29.03
2024-03-07T03:47:05.309Z,34.80
2024-03-07T03:49:33.980Z,27.70
2024-03-07T03:52:02.284Z,30.23
2024-03-07T03:54:30.623Z,28.80
2024-03-07T03:57:00.268Z,28.77
2024-03-07T03:59:28.874Z,27.83
2024-03-07T04:01:59.010Z,27.57
2024-03-07T04:04:27.526Z,29.13
2024-03-07T04:06:55.988Z,27.03
2024-03-07T04:09:24.748Z,27.17
2024-03-07T04:11:53.215Z,27.50
2024-03-07T04:14:21.538Z,24.70
2024-03-07T04:16:49.792Z,23.73
2024-03-07T04:19:21.725Z,24.67
2024-03-07T04:21:49.975Z,23.40
2024-03-07T04:24:18.299Z,24.00
2024-03-07T04:26:46.553Z,22.97
2024-03-07T04:29:15.445Z,22.33
2024-03-07T04:31:43.701Z,23.17
2024-03-07T04:34:12.092Z,22.07
2024-03-07T04:36:42.736Z,21.63
2024-03-07T04:39:25.872Z,23.17
2024-03-07T04:41:58.026Z,26.23
2024-03-07T04:44:26.595Z,24.93
2024-03-07T04:46:56.975Z,25.07
2024-03-07T04:49:25.745Z,25.40
2024-03-07T04:51:57.166Z,23.10
2024-03-07T04:54:26.742Z,23.37
2024-03-07T04:56:56.080Z,23.40
2024-03-07T04:59:24.797Z,24.27
2024-03-07T05:01:53.605Z,25.20
2024-03-07T05:04:24.791Z,22.67
2024-03-07T05:06:56.356Z,22.70
2024-03-07T05:09:26.793Z,20.93
2024-03-07T05:11:55.570Z,22.37
2024-03-07T05:14:26.027Z,21.80
2024-03-07T05:17:06.566Z,21.07
2024-03-07T05:19:35.390Z,21.23
2024-03-07T05:22:06.279Z,23.20
2024-03-07T05:24:35.187Z,21.67
2024-03-07T05:27:03.804Z,20.47
2024-03-07T05:29:32.023Z,22.20
2024-03-07T05:32:23.216Z,20.70
2024-03-07T05:34:51.796Z,20.23
2024-03-07T05:37:22.747Z,21.00
2024-03-07T05:39:51.451Z,21.60
2024-03-07T05:42:20.031Z,23.13
2024-03-07T05:44:48.668Z,20.70
2024-03-07T05:47:18.177Z,22.20
2024-03-07T05:49:46.680Z,18.77
2024-03-07T05:52:15.148Z,21.73
2024-03-07T05:54:45.503Z,22.20
2024-03-07T05:57:14.458Z,22.17
2024-03-07T05:59:42.856Z,21.40
2024-03-07T06:02:13.812Z,21.23
2024-03-07T06:04:42.367Z,21.90
2024-03-07T06:07:16.032Z,20.23
2024-03-07T06:09:46.284Z,19.93
2024-03-07T06:12:20.348Z,19.67
2024-03-07T06:14:55.682Z,20.07
2024-03-07T06:17:24.540Z,17.93
2024-03-07T06:19:53.076Z,21.67
2024-03-07T06:22:21.623Z,20.17
2024-03-07T06:24:51.403Z,17.60
2024-03-07T06:27:28.860Z,22.90
2024-03-07T06:29:57.383Z,21.27
2024-03-07T06:32:26.169Z,21.40
2024-03-07T06:34:54.741Z,21.53
2024-03-07T06:37:23.134Z,19.80
2024-03-07T06:39:53.467Z,19.77
2024-03-07T06:42:23.026Z,17.50
2024-03-07T06:44:51.362Z,18.73
2024-03-07T06:47:21.395Z,21.77
2024-03-07T06:49:49.873Z,18.10
2024-03-07T06:52:19.510Z,20.50
2024-03-07T06:54:47.922Z,20.57
2024-03-07T06:57:20.419Z,21.07
2024-03-07T06:59:48.826Z,23.27
2024-03-07T07:02:17.309Z,20.30
2024-03-07T07:04:48.954Z,19.17
2024-03-07T07:07:17.615Z,21.33
2024-03-07T07:09:46.034Z,18.47
2024-03-07T07:12:15.880Z,20.33
2024-03-07T07:14:45.795Z,21.83
2024-03-07T07:17:14.848Z,17.60
2024-03-07T07:19:43.425Z,18.77
2024-03-07T07:22:12.405Z,18.97
2024-03-07T07:24:41.242Z,19.63
2024-03-07T07:27:09.879Z,18.27
2024-03-07T07:29:38.305Z,19.30
2024-03-07T07:32:08.860Z,17.03
2024-03-07T07:34:37.685Z,19.50
2024-03-07T07:37:06.120Z,17.43
2024-03-07T07:39:34.478Z,17.53
2024-03-07T07:42:03.155Z,18.83
2024-03-07T07:44:31.635Z,18.93
2024-03-07T07:47:00.033Z,19.03
2024-03-07T07:49:30.047Z,19.13
2024-03-07T07:51:59.220Z,18.33
2024-03-07T07:54:27.997Z,21.07
2024-03-07T07:56:56.517Z,20.43
2024-03-07T07:59:25.137Z,20.37
2024-03-07T08:01:55.873Z,21.50
2024-03-07T08:04:24.214Z,19.63
2024-03-07T08:06:53.983Z,19.53
2024-03-07T08:09:22.537Z,19.50
2024-03-07T08:11:52.230Z,20.97
2024-03-07T08:14:20.876Z,26.47
2024-03-07T08:16:52.419Z,23.77
2024-03-07T08:19:20.647Z,24.93
2024-03-07T08:21:48.919Z,24.07
2024-03-07T08:24:18.571Z,23.70
2024-03-07T08:26:48.135Z,22.60
2024-03-07T08:29:17.666Z,23.23
2024-03-07T08:31:46.048Z,22.93
2024-03-07T08:34:14.310Z,23.80
2024-03-07T08:36:42.709Z,24.30
2024-03-07T08:39:12.117Z,24.03
2024-03-07T08:41:43.445Z,20.80
2024-03-07T08:44:11.681Z,22.30
2024-03-07T08:46:39.944Z,24.27
2024-03-07T08:49:08.168Z,24.43
2024-03-07T08:51:36.541Z,22.90
2024-03-07T08:54:05.118Z,24.47
2024-03-07T08:56:34.145Z,27.27
2024-03-07T08:59:03.933Z,24.50
2024-03-07T09:01:32.448Z,24.27
2024-03-07T09:04:12.855Z,25.23
2024-03-07T09:06:42.691Z,23.37
2024-03-07T09:09:11.404Z,24.40
2024-03-07T09:11:39.934Z,21.73
2024-03-07T09:14:10.662Z,25.13
2024-03-07T09:16:39.230Z,21.83
2024-03-07T09:19:09.007Z,25.00
2024-03-07T09:21:37.359Z,28.47
2024-03-07T09:24:07.720Z,26.07
2024-03-07T09:26:36.333Z,24.07
2024-03-07T09:29:07.719Z,23.40
2024-03-07T09:31:41.477Z,25.53
2024-03-07T09:34:10.104Z,23.43
2024-03-07T09:36:38.454Z,22.63
2024-03-07T09:39:06.709Z,22.23
2024-03-07T09:41:35.179Z,21.50
2024-03-07T09:44:04.727Z,27.87
2024-03-07T09:46:33.586Z,23.07
2024-03-07T09:49:03.704Z,24.80
2024-03-07T09:51:32.569Z,25.67
2024-03-07T09:54:01.400Z,22.87
2024-03-07T09:56:30.694Z,21.93
2024-03-07T09:59:01.336Z,23.60
2024-03-07T10:01:33.012Z,24.70
2024-03-07T10:04:12.608Z,21.70
2024-03-07T10:06:41.389Z,21.97
2024-03-07T10:09:10.376Z,21.20
2024-03-07T10:11:38.650Z,19.53
2024-03-07T10:14:08.385Z,21.97
2024-03-07T10:16:38.215Z,22.60
2024-03-07T10:19:09.234Z,20.90
2024-03-07T10:21:38.314Z,22.30
2024-03-07T10:24:08.764Z,20.27
2024-03-07T10:26:38.985Z,17.73
2024-03-07T10:29:08.984Z,21.43
2024-03-07T10:31:43.866Z,18.60
2024-03-07T10:34:19.718Z,19.03
2024-03-07T10:36:47.997Z,22.30
2024-03-07T10:39:17.303Z,17.33
2024-03-07T10:41:49.093Z,17.30
2024-03-07T10:44:26.665Z,16.53
2024-03-07T10:47:00.661Z,20.80
2024-03-07T10:49:36.182Z,15.23
2024-03-07T10:52:12.072Z,17.53
2024-03-07T10:54:53.563Z,18.53
2024-03-07T10:57:36.913Z,18.37
2024-03-07T11:00:25.485Z,18.20
2024-03-07T11:02:56.376Z,18.10
2024-03-07T11:05:31.230Z,15.37
2024-03-07T11:08:12.804Z,16.77
2024-03-07T11:10:42.022Z,18.33
2024-03-07T11:13:13.834Z,17.67
2024-03-07T11:15:46.249Z,18.83
2024-03-07T11:18:15.296Z,15.57
2024-03-07T11:20:47.987Z,14.53
2024-03-07T11:23:30.888Z,18.77
2024-03-07T11:26:09.970Z,18.17
2024-03-07T11:28:40.069Z,19.50
2024-03-07T11:31:17.639Z,19.30
2024-03-07T11:34:16.637Z,16.83
2024-03-07T11:36:47.023Z,17.57
2024-03-07T11:39:44.290Z,15.93
2024-03-07T11:42:23.560Z,17.00
2024-03-07T11:44:52.531Z,16.13
2024-03-07T11:47:20.983Z,15.20
2024-03-07T11:49:50.832Z,15.63
2024-03-07T11:52:19.458Z,17.77
2024-03-07T11:54:48.608Z,16.37
2024-03-07T11:57:27.632Z,17.13
2024-03-07T11:59:56.164Z,17.77
2024-03-07T12:02:24.656Z,18.23
2024-03-07T12:04:54.717Z,16.43
2024-03-07T12:07:23.940Z,17.33
2024-03-07T12:09:55.196Z,16.83
2024-03-07T12:12:25.802Z,15.63
2024-03-07T12:14:55.378Z,15.43
2024-03-07T12:17:24.215Z,14.27
2024-03-07T12:19:54.639Z,14.43
2024-03-07T12:22:26.413Z,17.20
2024-03-07T12:25:04.541Z,16.67
2024-03-07T12:27:33.103Z,16.97
2024-03-07T12:30:08.837Z,15.90
2024-03-07T12:32:37.334Z,17.47
2024-03-07T12:35:13.692Z,15.33
2024-03-07T12:37:43.338Z,14.33
2024-03-07T12:40:18.948Z,16.80
2024-03-07T12:42:49.275Z,14.83
2024-03-07T12:45:19.844Z,15.40
2024-03-07T12:47:51.787Z,14.67
2024-03-07T12:50:22.640Z,17.47
2024-03-07T12:52:52.084Z,17.03
2024-03-07T12:55:22.705Z,15.30
2024-03-07T12:57:51.778Z,15.30
2024-03-07T13:00:21.442Z,16.83
2024-03-07T13:02:50.172Z,14.70
2024-03-07T13:05:23.015Z,17.90
2024-03-07T13:07:54.401Z,15.30
2024-03-07T13:10:22.838Z,15.00
2024-03-07T13:12:51.360Z,16.90
2024-03-07T13:15:22.841Z,14.40
2024-03-07T13:17:54.697Z,16.27
2024-03-07T13:20:27.774Z,15.37
2024-03-07T13:22:58.041Z,15.50
2024-03-07T13:25:28.239Z,15.43
2024-03-07T13:28:01.878Z,16.90
2024-03-07T13:30:30.865Z,15.23
2024-03-07T13:33:01.545Z,16.03
2024-03-07T13:35:30.213Z,16.53
2024-03-07T13:38:00.364Z,15.07
2024-03-07T13:40:29.426Z,17.97
2024-03-07T13:42:58.877Z,17.80
2024-03-07T13:45:31.228Z,16.43
2024-03-07T13:48:01.044Z,15.43
2024-03-07T13:50:47.470Z,15.47
2024-03-07T13:53:34.156Z,18.53
2024-03-07T13:56:36.602Z,18.73
2024-03-07T14:00:00.640Z,17.27
2024-03-07T14:03:28.564Z,15.93
2024-03-07T14:06:08.014Z,17.00
2024-03-07T14:09:32.700Z,16.53
2024-03-07T14:12:36.650Z,16.53
2024-03-07T14:15:58.247Z,17.40
2024-03-07T14:19:23.408Z,19.33
2024-03-07T14:22:12.896Z,17.97
2024-03-07T14:25:19.746Z,16.93
2024-03-07T14:28:16.532Z,19.60
2024-03-07T14:30:55.096Z,20.33
2024-03-07T14:33:31.997Z,19.87
2024-03-07T14:36:05.934Z,17.47
2024-03-07T14:38:51.455Z,18.77
2024-03-07T14:41:26.833Z,16.03
2024-03-07T14:43:55.333Z,14.33
2024-03-07T14:46:23.792Z,16.30
2024-03-07T14:48:52.535Z,15.47
2024-03-07T14:51:22.095Z,16.40
2024-03-07T14:53:50.431Z,18.57
2024-03-07T14:56:20.926Z,17.47
2024-03-07T14:58:51.519Z,15.53
2024-03-07T15:01:19.873Z,15.37
2024-03-07T15:03:51.536Z,15.30
2024-03-07T15:06:24.637Z,18.00
2024-03-07T15:08:54.376Z,18.90
2024-03-07T15:11:31.957Z,17.73
2024-03-07T15:14:02.383Z,17.83
2024-03-07T15:16:37.285Z,15.63
2024-03-07T15:19:06.180Z,15.87
2024-03-07T15:21:34.795Z,19.10
2024-03-07T15:24:04.700Z,19.27
2024-03-07T15:26:33.829Z,18.60
2024-03-07T15:29:04.142Z,17.67
2024-03-07T15:31:33.331Z,19.50
2024-03-07T15:34:01.737Z,19.03
2024-03-07T15:36:30.827Z,16.37
2024-03-07T15:39:04.948Z,18.47
2024-03-07T15:41:34.774Z,18.63
2024-03-07T15:44:04.545Z,17.17
2024-03-07T15:46:32.927Z,20.63
2024-03-07T15:49:01.593Z,17.13
2024-03-07T15:51:30.036Z,17.50
2024-03-07T15:53:58.474Z,16.80
2024-03-07T15:56:27.143Z,18.03
2024-03-07T15:58:55.960Z,19.63
2024-03-07T16:01:25.619Z,19.10
2024-03-07T16:03:53.887Z,19.10
2024-03-07T16:06:22.926Z,18.60
2024-03-07T16:08:51.400Z,17.10
2024-03-07T16:11:25.937Z,16.93
2024-03-07T16:13:54.876Z,35.77
2024-03-07T16:16:23.117Z,18.70
2024-03-07T16:18:53.430Z,19.80
2024-03-07T16:21:23.629Z,20.27
2024-03-07T16:23:54.196Z,20.33
2024-03-07T16:26:22.678Z,18.20
2024-03-07T16:28:52.873Z,18.03
2024-03-07T16:31:21.131Z,17.60
2024-03-07T16:33:49.399Z,19.27
2024-03-07T16:36:19.051Z,19.13
2024-03-07T16:38:47.705Z,18.97
2024-03-07T16:41:16.074Z,22.17
2024-03-07T16:43:44.483Z,19.53
2024-03-07T16:46:13.443Z,17.50
2024-03-07T16:48:42.233Z,17.90
2024-03-07T16:51:11.816Z,20.97
2024-03-07T16:53:41.686Z,19.27
2024-03-07T16:56:10.985Z,15.83
2024-03-07T16:58:39.215Z,18.07
2024-03-07T17:01:07.671Z,17.83
2024-03-07T17:03:38.117Z,17.87
2024-03-07T17:06:11.173Z,18.10
2024-03-07T17:08:45.059Z,17.27
2024-03-07T17:11:14.483Z,20.63
2024-03-07T17:13:43.135Z,20.97
2024-03-07T17:16:11.608Z,19.53
2024-03-07T17:18:40.120Z,17.93
2024-03-07T17:21:11.715Z,18.73
2024-03-07T17:23:40.527Z,16.90
2024-03-07T17:26:10.388Z,19.77
2024-03-07T17:28:39.319Z,15.00
2024-03-07T17:31:09.012Z,20.60
2024-03-07T17:33:41.778Z,19.43
2024-03-07T17:36:11.038Z,22.13
2024-03-07T17:38:40.253Z,17.93
2024-03-07T17:41:10.248Z,20.30
2024-03-07T17:43:39.523Z,17.90
2024-03-07T17:46:08.344Z,16.77
2024-03-07T17:48:38.030Z,18.80
2024-03-07T17:51:08.284Z,19.13
2024-03-07T17:53:38.543Z,18.30
2024-03-07T17:56:08.058Z,19.53
2024-03-07T17:58:38.053Z,17.53
2024-03-07T18:01:10.003Z,17.50
2024-03-07T18:03:41.795Z,18.13
2024-03-07T18:06:12.944Z,19.17
2024-03-07T18:08:48.915Z,19.30
2024-03-07T18:11:30.748Z,21.17
2024-03-07T18:14:01.273Z,30.20
2024-03-07T18:16:34.048Z,24.47
2024-03-07T18:19:02.488Z,20.97
2024-03-07T18:21:31.712Z,20.80
2024-03-07T18:24:00.408Z,20.40
2024-03-07T18:26:28.829Z,19.03
2024-03-07T18:28:57.099Z,19.23
2024-03-07T18:31:30.890Z,20.60
2024-03-07T18:33:59.680Z,19.13
2024-03-07T18:36:27.947Z,23.13
2024-03-07T18:38:56.365Z,21.77
2024-03-07T18:41:25.960Z,19.63
2024-03-07T18:43:54.202Z,21.17
2024-03-07T18:46:23.095Z,20.37
2024-03-07T18:48:54.663Z,17.43
2024-03-07T18:51:24.245Z,20.53
2024-03-07T18:53:54.563Z,19.67
2024-03-07T18:56:24.442Z,19.90
2024-03-07T18:58:52.913Z,19.93
2024-03-07T19:01:21.282Z,19.77
2024-03-07T19:03:54.547Z,20.80
2024-03-07T19:06:23.932Z,22.80
2024-03-07T19:08:52.995Z,20.67
2024-03-07T19:11:21.377Z,21.13
2024-03-07T19:13:50.120Z,21.40
2024-03-07T19:16:18.299Z,22.47
2024-03-07T19:18:46.909Z,19.90
2024-03-07T19:21:16.892Z,21.33
2024-03-07T19:23:47.553Z,21.87
2024-03-07T19:26:20.630Z,21.27
2024-03-07T19:28:49.823Z,17.77
2024-03-07T19:31:18.123Z,21.53
2024-03-07T19:33:47.037Z,25.80
2024-03-07T19:36:17.050Z,21.33
2024-03-07T19:38:48.572Z,25.73
2024-03-07T19:41:18.424Z,24.90
2024-03-07T19:43:46.685Z,21.07
2024-03-07T19:46:15.136Z,19.63
2024-03-07T19:48:44.902Z,21.43
2024-03-07T19:51:13.667Z,20.20
2024-03-07T19:53:43.509Z,23.57
2024-03-07T19:56:13.875Z,23.83
2024-03-07T19:58:45.553Z,19.50
2024-03-07T20:01:13.850Z,19.30
2024-03-07T20:03:42.572Z,20.63
2024-03-07T20:06:11.619Z,23.23
2024-03-07T20:08:40.144Z,22.93
2024-03-07T20:11:09.954Z,19.67
2024-03-07T20:13:41.071Z,21.23
2024-03-07T20:16:10.384Z,19.93
2024-03-07T20:18:42.949Z,20.10
2024-03-07T20:21:12.367Z,19.33
2024-03-07T20:23:42.082Z,18.97
2024-03-07T20:26:12.109Z,19.27
2024-03-07T20:28:40.400Z,21.33
2024-03-07T20:31:10.154Z,19.27
2024-03-07T20:33:39.050Z,20.70
2024-03-07T20:36:11.029Z,21.17
2024-03-07T20:38:39.928Z,20.50
2024-03-07T20:41:08.412Z,21.23
2024-03-07T20:43:38.406Z,17.07
2024-03-07T20:46:07.734Z,19.60
2024-03-07T20:48:37.764Z,21.30
2024-03-07T20:51:11.520Z,21.57
2024-03-07T20:53:40.957Z,23.37
2024-03-07T20:56:09.336Z,24.03
2024-03-07T20:58:39.099Z,21.90
2024-03-07T21:01:13.140Z,19.13
2024-03-07T21:03:43.057Z,21.80
2024-03-07T21:06:12.824Z,20.53
2024-03-07T21:08:43.489Z,20.80
2024-03-07T21:11:13.564Z,21.13
2024-03-07T21:13:43.533Z,20.83
2024-03-07T21:16:13.245Z,25.33
2024-03-07T21:18:42.292Z,20.50
2024-03-07T21:21:11.015Z,23.60
2024-03-07T21:23:41.758Z,19.30
2024-03-07T21:26:13.360Z,21.77
2024-03-07T21:28:43.251Z,21.37
2024-03-07T21:31:12.502Z,24.47
2024-03-07T21:33:41.764Z,21.93
2024-03-07T21:36:11.132Z,19.53
2024-03-07T21:38:39.715Z,20.83
2024-03-07T21:41:10.070Z,22.30
2024-03-07T21:43:39.420Z,22.73
2024-03-07T21:46:09.386Z,23.20
2024-03-07T21:48:38.116Z,20.37
2024-03-07T21:51:08.078Z,23.87
2024-03-07T21:53:41.308Z,19.77
2024-03-07T21:56:09.947Z,22.03
2024-03-07T21:58:38.471Z,22.23
2024-03-07T22:01:10.003Z,24.13
2024-03-07T22:03:42.931Z,20.90
2024-03-07T22:06:11.975Z,23.60
2024-03-07T22:08:40.705Z,26.57
2024-03-07T22:11:16.518Z,24.00
2024-03-07T22:13:45.823Z,25.90
2024-03-07T22:16:16.834Z,22.43
2024-03-07T22:18:45.367Z,19.80
2024-03-07T22:21:14.016Z,22.73
2024-03-07T22:23:42.364Z,21.70
2024-03-07T22:26:13.134Z,21.27
2024-03-07T22:28:41.537Z,20.93
2024-03-07T22:31:10.897Z,21.30
2024-03-07T22:33:41.747Z,21.90
2024-03-07T22:36:11.062Z,22.73
2024-03-07T22:38:39.507Z,23.70
2024-03-07T22:41:07.910Z,22.33
2024-03-07T22:43:36.470Z,21.00
2024-03-07T22:46:05.432Z,22.07
2024-03-07T22:48:36.950Z,26.10
2024-03-07T22:51:10.224Z,26.23
2024-03-07T22:53:38.813Z,19.00
2024-03-07T22:56:07.469Z,20.73
2024-03-07T22:58:35.824Z,23.87
2024-03-07T23:01:05.536Z,21.80
2024-03-07T23:03:34.104Z,23.53
2024-03-07T23:06:05.230Z,23.97
2024-03-07T23:08:36.401Z,22.43
2024-03-07T23:11:05.796Z,24.80
2024-03-07T23:13:33.976Z,23.57
2024-03-07T23:16:02.471Z,25.10
2024-03-07T23:18:31.109Z,22.87
2024-03-07T23:21:00.657Z,23.67
2024-03-07T23:23:29.160Z,22.17
2024-03-07T23:25:59.158Z,24.53
2024-03-07T23:28:27.548Z,23.27
2024-03-07T23:30:55.863Z,24.77
2024-03-07T23:33:25.410Z,23.87
2024-03-07T23:35:54.296Z,24.57
2024-03-07T23:38:23.227Z,23.73
2024-03-07T23:40:51.139Z,25.07
2024-03-07T23:43:20.885Z,28.10
2024-03-07T23:45:49.363Z,25.77
2024-03-07T23:48:18.368Z,23.73
2024-03-07T23:50:46.923Z,20.97
2024-03-07T23:53:15.402Z,25.20
2024-03-07T23:55:44.603Z,23.53
2024-03-07T23:58:13.027Z,25.73
